Coburg-Steinrucken Airport


Codes: EDQY/
Name: Coburg-Steinrucken Airport
City: Coburg
Country: Germany
Elevation: 1184 ft.

Photos at Coburg-Steinrucken Airport


   Photos courtesy of SpottingLog. You can add your own sightings and photos by signing up for a free trial today.



No photos found.

Weather at Coburg-Steinrucken Airport


Time (UTC)DescriptionTempratureWindCloud coverageVisibilityPressureHumidity
21-Feb-2024 03:00Overcast Clouds6°C9 mph, SW100%10000m1023hPa74%
21-Feb-2024 06:00Overcast Clouds5°C7 mph, SW99%10000m1023hPa82%
21-Feb-2024 09:00Overcast Clouds6°C9 mph, SW99%10000m1022hPa81%
21-Feb-2024 12:00Overcast Clouds9°C11 mph, SW99%10000m1020hPa69%
21-Feb-2024 15:00Overcast Clouds8°C9 mph, SW100%10000m1017hPa72%
21-Feb-2024 18:00Overcast Clouds6°C4 mph, S100%10000m1015hPa81%
21-Feb-2024 21:00Overcast Clouds7°C7 mph, SW100%10000m1013hPa80%
22-Feb-2024 00:00Light Rain6°C13 mph, SW100%10000m1010hPa90%
22-Feb-2024 03:00Light Rain7°C13 mph, SW100%10000m1006hPa92%
22-Feb-2024 06:00Light Rain7°C13 mph, SW100%10000m1004hPa93%
22-Feb-2024 09:00Light Rain7°C11 mph, SW100%10000m1002hPa94%
22-Feb-2024 12:00Light Rain8°C13 mph, SW100%10000m999hPa89%
22-Feb-2024 15:00Light Rain9°C13 mph, SW100%10000m996hPa88%
22-Feb-2024 18:00Moderate Rain9°C16 mph, SW100%8417m993hPa90%
22-Feb-2024 21:00Moderate Rain9°C18 mph, SW100%9029m993hPa88%
23-Feb-2024 00:00Light Rain7°C16 mph, W100%10000m997hPa79%
23-Feb-2024 03:00Light Rain5°C11 mph, SW100%10000m998hPa82%
23-Feb-2024 06:00Light Rain4°C9 mph, SW99%10000m1001hPa84%
23-Feb-2024 09:00Overcast Clouds4°C9 mph, SW100%10000m1002hPa78%
23-Feb-2024 12:00Overcast Clouds5°C9 mph, SW100%10000m1002hPa67%
23-Feb-2024 15:00Overcast Clouds5°C7 mph, S100%10000m1001hPa70%
23-Feb-2024 18:00Overcast Clouds3°C4 mph, SE100%10000m1001hPa81%
23-Feb-2024 21:00Overcast Clouds3°C2 mph, SE100%10000m1001hPa88%
24-Feb-2024 00:00Overcast Clouds2°C2 mph, SE100%10000m1000hPa88%
24-Feb-2024 03:00Overcast Clouds1°C4 mph, SE100%10000m1000hPa91%
24-Feb-2024 06:00Overcast Clouds1°C4 mph, SE100%10000m1001hPa90%
24-Feb-2024 09:00Overcast Clouds3°C9 mph, SW100%10000m1003hPa82%
24-Feb-2024 12:00Broken Clouds7°C13 mph, SW82%10000m1004hPa62%
24-Feb-2024 15:00Light Rain6°C9 mph, SW97%10000m1005hPa71%
24-Feb-2024 18:00Light Rain3°C2 mph, SE61%10000m1007hPa85%
24-Feb-2024 21:00Broken Clouds2°C4 mph, E84%10000m1008hPa88%
25-Feb-2024 00:00Overcast Clouds2°C2 mph, E92%10000m1008hPa88%
25-Feb-2024 03:00Scattered Clouds1°C4 mph, E34%10000m1007hPa90%
25-Feb-2024 06:00Few Clouds0°C2 mph, SE23%10000m1008hPa90%
25-Feb-2024 09:00Clear Sky5°C7 mph, SW3%10000m1008hPa71%
25-Feb-2024 12:00Scattered Clouds6°C9 mph, SW29%10000m1008hPa67%
25-Feb-2024 15:00Overcast Clouds5°C7 mph, SW90%10000m1007hPa71%
25-Feb-2024 18:00Overcast Clouds2°C2 mph, NE88%10000m1007hPa83%
25-Feb-2024 21:00Scattered Clouds1°C2 mph, NE26%10000m1007hPa87%
26-Feb-2024 00:00Scattered Clouds1°C4 mph, E30%10000m1006hPa88%